Portada
METAR-TAF:

METAR-TAF

Aeroports :

Beverly, Massachusetts, Estats Units d'Amèrica

latitud: 42-35-01N, longitud: 070-54-59W, altitud: 33 m

Observació

L'informe es va fer fa 44 minuts, a les 22:53 UTC
Vent 9 kt del Sud-Est
Temperatura 12°C
Humitat 58%
Pressió 1026 hPa
Visibilitat: 16.1 km
Cel ennuvolat a una alçada de 2300 ft
Cel ennuvolat a una alçada de 2900 ft

METAR: KBVY 242253Z 13009KT 10SM BKN023 BKN029 12/04 A3031 RMK AO2 SLP259 T01220039

Hora: 19:37 (23:37 UTC)


TAF: manca

Observacions i pronòstics meteorològics de més de 4000 aeroports (METAR i TAF).

Les estacions disponibles són els punts grocs i vermells al mapa.

Posi el ratolí al punt desitjat per veure el nom de l'estació.

Feu clic per veure les observacions i els pronòstics meteorològics.

Per canviar el mapa: feu clic els botons verds amb una creu de color negre per apropar; al botó verd amb un guió per allunyar la imatge; o en les fletxes verdes per a mapes adjacents.


METAR-TAF: